createdAt,value
2023-01-29T03:10:16.415Z,35.90
2023-01-29T03:12:48.507Z,32.85
2023-01-29T03:15:20.574Z,28.63
2023-01-29T03:18:07.298Z,31.67
2023-01-29T03:20:39.888Z,32.53
2023-01-29T03:23:14.204Z,29.10
2023-01-29T03:25:44.721Z,31.70
2023-01-29T03:28:15.872Z,27.48
2023-01-29T03:30:50.480Z,28.83
2023-01-29T03:33:43.648Z,29.67
2023-01-29T03:36:16.612Z,33.47
2023-01-29T03:38:44.078Z,29.23
2023-01-29T03:41:20.080Z,31.08
2023-01-29T03:43:55.096Z,28.90
2023-01-29T03:46:27.483Z,28.13
2023-01-29T03:49:00.571Z,30.35
2023-01-29T03:51:33.333Z,29.13
2023-01-29T03:54:08.698Z,35.72
2023-01-29T04:05:13.611Z,28.33
2023-01-29T04:07:57.368Z,31.00
2023-01-29T04:10:27.764Z,35.20
2023-01-29T05:54:30.590Z,32.38
2023-01-29T05:56:57.615Z,30.08
2023-01-29T05:59:24.651Z,31.35
2023-01-29T06:11:10.108Z,30.08
2023-01-29T06:25:24.622Z,32.67
2023-01-29T08:08:20.898Z,34.00
2023-01-29T08:10:50.283Z,36.70
2023-01-29T08:13:20.377Z,38.55
2023-01-29T08:15:47.535Z,35.90
2023-01-29T08:18:15.209Z,31.38
2023-01-29T08:20:42.104Z,33.20
2023-01-29T08:23:15.894Z,27.13
2023-01-29T08:25:44.409Z,34.42
2023-01-29T08:28:12.116Z,30.70
2023-01-29T08:30:39.177Z,36.58
2023-01-29T08:33:05.775Z,33.83
2023-01-29T08:35:32.912Z,34.53
2023-01-29T08:38:01.868Z,32.42
2023-01-29T08:40:31.816Z,36.30
2023-01-29T08:43:01.986Z,31.38
2023-01-29T08:45:29.740Z,36.25
2023-01-29T08:47:56.640Z,35.85
2023-01-29T08:50:23.428Z,33.85
2023-01-29T08:52:50.054Z,32.85
2023-01-29T08:55:17.167Z,34.28
2023-01-29T08:57:45.471Z,36.88
2023-01-29T09:00:13.120Z,35.25
2023-01-29T09:02:39.763Z,31.35
2023-01-29T09:05:07.422Z,33.40
2023-01-29T09:07:34.045Z,32.30
2023-01-29T09:10:01.330Z,34.63
2023-01-29T09:12:28.173Z,33.75
2023-01-29T09:14:56.334Z,36.92
2023-01-29T09:17:22.858Z,34.03
2023-01-29T09:19:49.378Z,35.13
2023-01-29T09:22:15.936Z,34.60
2023-01-29T09:24:42.484Z,35.83
2023-01-29T09:27:09.165Z,35.33
2023-01-29T09:29:36.137Z,33.60
2023-01-29T09:32:05.435Z,33.42
2023-01-29T09:34:33.725Z,33.50
2023-01-29T09:37:00.309Z,36.25
2023-01-29T09:39:26.944Z,37.17
2023-01-29T09:41:59.752Z,35.92
2023-01-29T09:44:42.659Z,34.88
2023-01-29T09:47:14.428Z,36.35
2023-01-29T09:49:45.866Z,37.67
2023-01-29T09:52:18.975Z,35.67
2023-01-29T09:54:54.629Z,40.38
2023-01-29T09:57:25.847Z,98.68
2023-01-29T09:59:53.983Z,65.43
2023-01-29T10:02:42.973Z,102.30
2023-01-29T10:05:24.552Z,86.82
2023-01-29T10:08:13.240Z,72.18
2023-01-29T10:10:49.182Z,160.63
2023-01-29T10:13:27.231Z,58.65
2023-01-29T10:16:08.314Z,43.83
2023-01-29T10:19:10.524Z,42.97
2023-01-29T10:21:56.921Z,45.20
2023-01-29T10:24:29.673Z,40.35
2023-01-29T10:26:57.452Z,48.60
2023-01-29T10:29:27.243Z,48.05
2023-01-29T10:31:56.991Z,38.20
2023-01-29T10:34:31.355Z,40.55
2023-01-29T10:36:59.611Z,41.45
2023-01-29T10:39:29.633Z,44.08
2023-01-29T10:42:13.194Z,42.42
2023-01-29T10:44:53.510Z,40.58
2023-01-29T10:47:37.852Z,43.05
2023-01-29T10:50:17.953Z,42.92
2023-01-29T10:53:01.394Z,39.22
2023-01-29T10:55:41.460Z,40.47
2023-01-29T10:58:19.224Z,44.47
2023-01-29T11:00:46.105Z,36.38
2023-01-29T11:03:26.924Z,37.25
2023-01-29T11:06:01.760Z,36.47
2023-01-29T11:08:37.605Z,28.33
2023-01-29T11:11:08.104Z,34.88
2023-01-29T11:13:40.305Z,33.15
2023-01-29T11:16:09.321Z,25.40
2023-01-29T11:18:57.183Z,22.77
2023-01-29T11:21:25.130Z,24.10
2023-01-29T11:24:06.116Z,26.90
2023-01-29T11:26:37.746Z,26.17
2023-01-29T11:29:04.418Z,26.95
2023-01-29T11:31:37.492Z,23.77
2023-01-29T11:34:06.442Z,24.23
2023-01-29T11:36:36.044Z,26.90
2023-01-29T11:39:18.139Z,24.50
2023-01-29T11:41:49.417Z,24.52
2023-01-29T11:44:21.309Z,27.20
2023-01-29T11:46:49.565Z,22.25
2023-01-29T11:49:32.846Z,22.88
2023-01-29T11:52:02.088Z,28.80
2023-01-29T11:54:34.362Z,24.77
2023-01-29T11:57:02.407Z,24.90
2023-01-29T11:59:38.047Z,26.25
2023-01-29T12:02:19.121Z,22.40
2023-01-29T12:04:46.571Z,24.35
2023-01-29T12:07:16.140Z,22.83
2023-01-29T12:09:52.243Z,22.83
2023-01-29T12:12:28.798Z,25.92
2023-01-29T12:15:16.838Z,22.27
2023-01-29T12:17:50.821Z,24.58
2023-01-29T12:20:24.123Z,24.20
2023-01-29T12:22:59.137Z,20.23
2023-01-29T12:25:41.594Z,25.13
2023-01-29T12:28:19.215Z,24.17
2023-01-29T12:30:55.556Z,25.38
2023-01-29T12:33:35.326Z,26.35
2023-01-29T12:36:10.895Z,24.85
2023-01-29T12:38:37.793Z,25.63
2023-01-29T12:41:13.829Z,26.63
2023-01-29T12:43:46.000Z,23.25
2023-01-29T12:46:21.600Z,28.25
2023-01-29T12:48:50.381Z,27.55
2023-01-29T12:51:19.356Z,26.63
2023-01-29T12:53:54.026Z,31.55
2023-01-29T12:56:29.072Z,27.60
2023-01-29T12:58:58.844Z,29.85
2023-01-29T13:01:29.580Z,27.67
2023-01-29T13:04:01.654Z,27.85
2023-01-29T13:06:33.850Z,28.40
2023-01-29T13:09:04.590Z,26.25
2023-01-29T13:11:38.211Z,25.15
2023-01-29T13:14:13.968Z,27.67
2023-01-29T13:16:45.283Z,26.95
2023-01-29T13:19:21.892Z,27.25
2023-01-29T13:21:48.826Z,27.95
2023-01-29T13:24:18.462Z,30.27
2023-01-29T13:26:48.586Z,26.85
2023-01-29T13:29:23.914Z,29.75
2023-01-29T13:31:54.503Z,30.65
2023-01-29T13:34:25.584Z,29.10
2023-01-29T13:36:57.354Z,25.30
2023-01-29T13:39:30.453Z,29.10
2023-01-29T13:42:03.887Z,26.13
2023-01-29T13:44:35.560Z,28.98
2023-01-29T13:47:04.446Z,26.60
2023-01-29T13:49:39.254Z,26.38
2023-01-29T13:52:30.910Z,28.35
2023-01-29T13:55:00.770Z,27.83
2023-01-29T13:57:50.701Z,24.58
2023-01-29T14:00:57.017Z,24.65
2023-01-29T14:04:04.249Z,24.30
2023-01-29T14:06:50.445Z,24.65
2023-01-29T14:09:34.732Z,25.20
2023-01-29T14:12:03.682Z,31.30
2023-01-29T14:15:01.566Z,29.98
2023-01-29T14:17:30.180Z,26.02
2023-01-29T14:20:02.226Z,28.63
2023-01-29T14:22:30.682Z,17.80
2023-01-29T14:25:03.977Z,20.52
2023-01-29T14:27:31.873Z,17.75
2023-01-29T14:30:07.462Z,17.20
2023-01-29T14:32:34.371Z,21.98
2023-01-29T14:35:03.585Z,17.27
2023-01-29T14:37:34.149Z,18.23
2023-01-29T14:40:19.437Z,17.13
2023-01-29T14:42:57.177Z,16.67
2023-01-29T14:45:28.843Z,14.57
2023-01-29T14:47:58.246Z,19.40
2023-01-29T14:50:43.561Z,21.20
2023-01-29T14:53:14.485Z,18.52
2023-01-29T14:55:44.310Z,17.83
2023-01-29T14:58:14.619Z,18.35
2023-01-29T15:00:45.030Z,18.00
2023-01-29T15:03:20.249Z,20.10
2023-01-29T15:05:49.313Z,21.77
2023-01-29T15:08:23.102Z,23.85
2023-01-29T15:10:54.332Z,21.38
2023-01-29T15:13:28.447Z,17.33
2023-01-29T15:16:03.907Z,20.27
2023-01-29T15:18:34.992Z,17.75
2023-01-29T15:21:04.727Z,17.77
2023-01-29T15:23:33.764Z,17.65
2023-01-29T15:26:04.342Z,21.83
2023-01-29T15:28:32.833Z,22.67
2023-01-29T15:31:03.566Z,20.58
2023-01-29T15:33:31.895Z,23.48
2023-01-29T15:36:08.567Z,20.10
2023-01-29T15:38:35.640Z,20.83
2023-01-29T15:41:14.799Z,21.08
2023-01-29T15:43:44.527Z,24.35
2023-01-29T15:46:20.585Z,20.80
2023-01-29T15:48:48.969Z,20.95
2023-01-29T15:51:17.674Z,21.45
2023-01-29T15:53:50.129Z,18.95
2023-01-29T15:56:21.623Z,17.42
2023-01-29T15:58:49.915Z,17.02
2023-01-29T16:01:18.197Z,19.35
2023-01-29T16:03:46.155Z,19.05
2023-01-29T16:06:12.979Z,19.98
2023-01-29T16:08:41.963Z,21.30
2023-01-29T16:11:11.320Z,18.70
2023-01-29T16:13:41.348Z,19.45
2023-01-29T16:16:24.069Z,22.23
2023-01-29T16:18:59.902Z,24.48
2023-01-29T16:21:30.164Z,22.65
2023-01-29T16:23:59.130Z,36.75
2023-01-29T16:26:28.265Z,21.95
2023-01-29T16:28:55.489Z,21.73
2023-01-29T16:31:27.584Z,20.50
2023-01-29T16:33:57.025Z,25.33
2023-01-29T16:36:26.710Z,22.90
2023-01-29T16:38:55.349Z,25.67
2023-01-29T16:41:30.371Z,22.80
2023-01-29T16:43:58.980Z,25.33
2023-01-29T16:46:32.777Z,23.73
2023-01-29T16:49:00.124Z,23.17
2023-01-29T16:51:29.762Z,24.10
2023-01-29T16:53:59.693Z,26.23
2023-01-29T16:56:32.187Z,21.30
2023-01-29T16:59:00.101Z,25.40
2023-01-29T17:01:30.120Z,30.55
2023-01-29T17:04:02.800Z,32.75
2023-01-29T17:06:32.373Z,37.25
2023-01-29T17:08:59.552Z,43.22
2023-01-29T17:11:31.832Z,38.50
2023-01-29T17:13:59.240Z,42.17
2023-01-29T17:16:29.567Z,39.42
2023-01-29T17:18:56.363Z,40.03
2023-01-29T17:21:23.428Z,27.10
2023-01-29T17:23:50.695Z,26.55
2023-01-29T17:26:18.398Z,27.40
2023-01-29T17:28:46.365Z,24.05
2023-01-29T17:31:13.231Z,23.85
2023-01-29T17:33:43.262Z,25.00
2023-01-29T17:36:11.350Z,25.27
2023-01-29T17:38:38.045Z,26.92
2023-01-29T17:41:08.064Z,26.50
2023-01-29T17:43:34.932Z,27.23
2023-01-29T17:46:01.581Z,35.05
2023-01-29T17:48:29.704Z,31.20
2023-01-29T17:51:00.500Z,37.90
2023-01-29T17:53:43.328Z,28.38
2023-01-29T17:56:15.527Z,26.20
2023-01-29T17:58:42.153Z,39.95
2023-01-29T18:01:08.667Z,29.00
2023-01-29T18:03:35.297Z,30.20
2023-01-29T18:06:03.449Z,25.95
2023-01-29T18:08:33.676Z,27.15
2023-01-29T18:11:00.926Z,26.48
2023-01-29T18:13:27.480Z,23.95
2023-01-29T18:15:54.193Z,24.55
2023-01-29T18:18:22.993Z,27.20
2023-01-29T18:20:50.303Z,24.40
2023-01-29T18:23:18.227Z,25.13
2023-01-29T18:25:45.338Z,23.83
2023-01-29T18:28:14.479Z,25.92
2023-01-29T18:30:41.351Z,24.25
2023-01-29T18:33:07.908Z,29.08
2023-01-29T18:35:34.498Z,28.50
2023-01-29T18:38:01.062Z,27.20
2023-01-29T18:40:29.016Z,26.65
2023-01-29T18:42:55.521Z,28.00
2023-01-29T18:45:22.021Z,37.72
2023-01-29T18:47:48.654Z,30.98
2023-01-29T18:50:15.669Z,30.30
2023-01-29T18:52:43.704Z,29.35
2023-01-29T18:55:10.557Z,28.60
2023-01-29T18:58:27.446Z,30.85
2023-01-29T19:00:25.120Z,31.42
2023-01-29T19:02:51.624Z,24.38
2023-01-29T19:05:18.814Z,26.33
2023-01-29T19:07:45.671Z,25.65
2023-01-29T19:10:12.356Z,27.05
2023-01-29T19:12:40.287Z,29.88
2023-01-29T19:15:08.157Z,23.92
2023-01-29T19:17:34.765Z,29.17
2023-01-29T19:20:01.491Z,31.77
2023-01-29T19:22:28.162Z,33.58
2023-01-29T19:24:54.823Z,32.28
2023-01-29T19:27:21.324Z,31.48
2023-01-29T19:29:49.314Z,29.33
2023-01-29T19:32:15.827Z,31.40
2023-01-29T19:34:42.488Z,28.75
2023-01-29T19:37:09.048Z,28.20
2023-01-29T19:39:35.717Z,29.70
2023-01-29T19:42:02.345Z,31.15
2023-01-29T19:44:28.979Z,25.00
2023-01-29T19:46:56.849Z,32.63
2023-01-29T19:49:25.083Z,33.00
2023-01-29T19:51:51.719Z,25.08
2023-01-29T19:54:18.293Z,29.33
2023-01-29T19:56:44.777Z,26.95
2023-01-29T19:59:11.637Z,24.05
2023-01-29T20:01:38.254Z,29.48
2023-01-29T20:04:06.227Z,28.25
2023-01-29T20:06:32.774Z,27.05
2023-01-29T20:08:59.415Z,24.85
2023-01-29T20:11:25.903Z,26.42
2023-01-29T20:13:53.258Z,25.52
2023-01-29T20:16:24.762Z,25.70
2023-01-29T20:18:53.018Z,28.35
2023-01-29T20:21:21.237Z,28.77
2023-01-29T20:23:49.498Z,24.90
2023-01-29T20:26:16.718Z,24.90
2023-01-29T20:28:45.349Z,27.58
2023-01-29T20:31:11.898Z,29.98
2023-01-29T20:33:39.658Z,30.23
2023-01-29T20:36:08.323Z,27.45
2023-01-29T20:38:36.576Z,23.67
2023-01-29T20:41:04.876Z,27.23
2023-01-29T20:43:31.590Z,24.90
2023-01-29T20:45:58.527Z,24.30
2023-01-29T20:48:25.180Z,26.50
2023-01-29T20:50:51.785Z,23.02
2023-01-29T20:53:18.458Z,29.58
2023-01-29T20:55:46.360Z,24.40
2023-01-29T20:58:13.092Z,25.15
2023-01-29T21:00:39.763Z,26.48
2023-01-29T21:03:06.334Z,24.27
2023-01-29T21:05:32.877Z,28.45
2023-01-29T21:07:59.484Z,27.85
2023-01-29T21:10:26.224Z,22.63
2023-01-29T21:12:54.165Z,29.35
2023-01-29T21:15:20.865Z,29.17
2023-01-29T21:17:47.508Z,25.38
2023-01-29T21:20:14.230Z,25.65
2023-01-29T21:22:40.857Z,27.02
2023-01-29T21:25:08.403Z,29.55
2023-01-29T21:27:35.110Z,23.52
2023-01-29T21:30:03.491Z,25.90
2023-01-29T21:32:30.094Z,27.77
2023-01-29T21:34:56.617Z,27.30
2023-01-29T21:37:23.245Z,29.75
2023-01-29T21:39:49.791Z,23.35
2023-01-29T21:42:16.361Z,27.45
2023-01-29T21:44:42.926Z,31.55
2023-01-29T21:47:10.891Z,34.40
2023-01-29T21:49:38.637Z,27.15
2023-01-29T21:52:05.261Z,27.13
2023-01-29T21:54:31.844Z,27.10
2023-01-29T21:56:58.479Z,28.17
2023-01-29T21:59:24.996Z,30.35
2023-01-29T22:01:51.704Z,24.02
2023-01-29T22:04:19.571Z,29.05
2023-01-29T22:06:46.171Z,24.90
2023-01-29T22:09:12.915Z,23.83
2023-01-29T22:11:40.649Z,25.85
2023-01-29T22:14:07.480Z,27.42
2023-01-29T22:16:34.410Z,21.98
2023-01-29T22:19:01.074Z,25.60
2023-01-29T22:21:29.175Z,25.48
2023-01-29T22:23:55.921Z,25.02
2023-01-29T22:26:22.697Z,24.20
2023-01-29T22:28:49.221Z,25.60
2023-01-29T22:31:15.800Z,29.55
2023-01-29T22:33:43.232Z,23.45
2023-01-29T22:36:10.040Z,25.20
2023-01-29T22:38:37.973Z,24.42
2023-01-29T22:41:05.021Z,24.83
2023-01-29T22:43:31.685Z,24.90
2023-01-29T22:45:58.288Z,26.02
2023-01-29T22:48:24.993Z,24.45
2023-01-29T22:50:55.989Z,24.77
2023-01-29T22:53:22.588Z,22.10
2023-01-29T22:55:55.399Z,20.65
2023-01-29T22:58:22.075Z,24.65
2023-01-29T23:00:50.111Z,25.23
2023-01-29T23:03:16.772Z,25.38
2023-01-29T23:05:43.287Z,21.88
2023-01-29T23:08:10.167Z,23.85
2023-01-29T23:10:37.357Z,21.45
2023-01-29T23:13:05.534Z,21.85
2023-01-29T23:15:32.309Z,18.75
2023-01-29T23:17:58.904Z,22.23
2023-01-29T23:20:25.460Z,22.80
2023-01-29T23:22:52.305Z,23.02
2023-01-29T23:25:18.844Z,22.05
2023-01-29T23:27:45.394Z,20.77
2023-01-29T23:30:14.223Z,21.92
2023-01-29T23:32:41.167Z,23.63
2023-01-29T23:35:08.462Z,20.98
2023-01-29T23:37:35.027Z,22.25
2023-01-29T23:40:01.609Z,24.55
2023-01-29T23:42:28.465Z,20.70
2023-01-29T23:44:55.017Z,20.55
2023-01-29T23:47:22.929Z,22.42
2023-01-29T23:49:49.436Z,19.15
2023-01-29T23:52:16.099Z,19.30
2023-01-29T23:54:42.604Z,17.42
2023-01-29T23:57:09.229Z,21.05
2023-01-29T23:59:35.777Z,20.33
